sensor_id;sensor_type;location;lat;lon;timestamp;pressure;altitude;pressure_sealevel;temperature;humidity
42003;BME280;27693;50.506;30.832;2022-11-04T00:00:24;99877.20;;;9.55;88.55
42003;BME280;27693;50.506;30.832;2022-11-04T00:01:27;99876.89;;;9.63;88.57
42003;BME280;27693;50.506;30.832;2022-11-04T00:02:29;99873.47;;;9.63;88.52
42003;BME280;27693;50.506;30.832;2022-11-04T00:03:31;99875.02;;;9.67;88.44
42003;BME280;27693;50.506;30.832;2022-11-04T00:04:33;99874.13;;;9.68;88.10
42003;BME280;27693;50.506;30.832;2022-11-04T00:05:36;99869.66;;;9.71;87.70
42003;BME280;27693;50.506;30.832;2022-11-04T00:06:39;99873.95;;;9.72;87.31
42003;BME280;27693;50.506;30.832;2022-11-04T00:07:41;99874.73;;;9.74;87.09
42003;BME280;27693;50.506;30.832;2022-11-04T00:08:52;99865.17;;;9.75;86.85
42003;BME280;27693;50.506;30.832;2022-11-04T00:09:54;99869.47;;;9.76;86.59
42003;BME280;27693;50.506;30.832;2022-11-04T00:10:57;99866.26;;;9.69;86.49
42003;BME280;27693;50.506;30.832;2022-11-04T00:12:00;99871.59;;;9.66;86.78
42003;BME280;27693;50.506;30.832;2022-11-04T00:13:01;99867.16;;;9.68;87.01
42003;BME280;27693;50.506;30.832;2022-11-04T00:14:05;99873.39;;;9.64;87.40
42003;BME280;27693;50.506;30.832;2022-11-04T00:15:08;99873.39;;;9.64;87.40
42003;BME280;27693;50.506;30.832;2022-11-04T00:16:11;99868.31;;;9.61;87.42
42003;BME280;27693;50.506;30.832;2022-11-04T00:17:14;99868.31;;;9.61;87.53
42003;BME280;27693;50.506;30.832;2022-11-04T00:18:16;99869.17;;;9.62;87.58
42003;BME280;27693;50.506;30.832;2022-11-04T00:19:18;99862.28;;;9.61;87.59
42003;BME280;27693;50.506;30.832;2022-11-04T00:20:20;99859.51;;;9.65;87.80
42003;BME280;27693;50.506;30.832;2022-11-04T00:21:22;99863.00;;;9.64;87.74
42003;BME280;27693;50.506;30.832;2022-11-04T00:22:24;99868.31;;;9.61;88.19
42003;BME280;27693;50.506;30.832;2022-11-04T00:23:26;99868.31;;;9.61;88.19
42003;BME280;27693;50.506;30.832;2022-11-04T00:24:28;99863.25;;;9.58;87.82
42003;BME280;27693;50.506;30.832;2022-11-04T00:25:30;99863.36;;;9.55;87.90
42003;BME280;27693;50.506;30.832;2022-11-04T00:26:32;99858.05;;;9.58;88.04
42003;BME280;27693;50.506;30.832;2022-11-04T00:27:34;99855.53;;;9.56;88.08
42003;BME280;27693;50.506;30.832;2022-11-04T00:28:36;99854.73;;;9.54;88.08
42003;BME280;27693;50.506;30.832;2022-11-04T00:29:38;99853.21;;;9.49;88.05
42003;BME280;27693;50.506;30.832;2022-11-04T00:30:39;99856.95;;;9.41;87.93
42003;BME280;27693;50.506;30.832;2022-11-04T00:31:41;99856.95;;;9.41;87.93
42003;BME280;27693;50.506;30.832;2022-11-04T00:32:43;99858.64;;;9.20;88.39
42003;BME280;27693;50.506;30.832;2022-11-04T00:33:45;99858.23;;;9.07;88.74
42003;BME280;27693;50.506;30.832;2022-11-04T00:34:48;99849.45;;;8.64;90.22
42003;BME280;27693;50.506;30.832;2022-11-04T00:35:50;99853.48;;;8.47;91.46
42003;BME280;27693;50.506;30.832;2022-11-04T00:36:53;99845.55;;;8.52;91.89
42003;BME280;27693;50.506;30.832;2022-11-04T00:37:55;99839.91;;;8.65;92.67
42003;BME280;27693;50.506;30.832;2022-11-04T00:38:57;99842.79;;;8.57;93.37
42003;BME280;27693;50.506;30.832;2022-11-04T00:39:59;99846.16;;;8.59;93.92
42003;BME280;27693;50.506;30.832;2022-11-04T00:41:01;99846.16;;;8.59;93.92
42003;BME280;27693;50.506;30.832;2022-11-04T00:42:03;99844.14;;;8.67;94.12
42003;BME280;27693;50.506;30.832;2022-11-04T00:43:05;99842.95;;;8.76;94.22
42003;BME280;27693;50.506;30.832;2022-11-04T00:44:07;99842.53;;;8.88;94.22
42003;BME280;27693;50.506;30.832;2022-11-04T00:45:08;99845.06;;;8.90;93.82
42003;BME280;27693;50.506;30.832;2022-11-04T00:46:12;99849.05;;;8.99;93.62
42003;BME280;27693;50.506;30.832;2022-11-04T00:47:14;99843.47;;;9.09;93.39
42003;BME280;27693;50.506;30.832;2022-11-04T00:48:16;99849.45;;;9.11;93.06
42003;BME280;27693;50.506;30.832;2022-11-04T00:49:18;99845.03;;;9.14;92.87
42003;BME280;27693;50.506;30.832;2022-11-04T00:50:20;99844.86;;;9.18;92.96
42003;BME280;27693;50.506;30.832;2022-11-04T00:51:23;99834.80;;;9.33;93.47
42003;BME280;27693;50.506;30.832;2022-11-04T00:52:25;99834.80;;;9.33;93.47
42003;BME280;27693;50.506;30.832;2022-11-04T00:53:26;99845.97;;;9.35;93.38
42003;BME280;27693;50.506;30.832;2022-11-04T00:54:28;99838.02;;;9.39;93.44
42003;BME280;27693;50.506;30.832;2022-11-04T00:55:30;99840.30;;;9.47;93.31
42003;BME280;27693;50.506;30.832;2022-11-04T00:56:32;99839.22;;;9.53;92.87
42003;BME280;27693;50.506;30.832;2022-11-04T00:57:33;99835.72;;;9.54;92.50
42003;BME280;27693;50.506;30.832;2022-11-04T00:58:35;99832.08;;;9.58;92.24
42003;BME280;27693;50.506;30.832;2022-11-04T00:59:38;99838.73;;;9.65;92.02
42003;BME280;27693;50.506;30.832;2022-11-04T01:00:40;99836.85;;;9.69;91.81
42003;BME280;27693;50.506;30.832;2022-11-04T01:01:42;99837.57;;;9.72;91.46
42003;BME280;27693;50.506;30.832;2022-11-04T01:02:44;99841.87;;;9.73;91.22
42003;BME280;27693;50.506;30.832;2022-11-04T01:03:49;99836.48;;;9.78;90.90
42003;BME280;27693;50.506;30.832;2022-11-04T01:04:53;99842.38;;;9.82;90.67
42003;BME280;27693;50.506;30.832;2022-11-04T01:05:57;99845.70;;;9.85;90.32
42003;BME280;27693;50.506;30.832;2022-11-04T01:07:00;99841.22;;;9.89;89.95
42003;BME280;27693;50.506;30.832;2022-11-04T01:08:03;99844.61;;;9.91;89.67
42003;BME280;27693;50.506;30.832;2022-11-04T01:09:06;99838.44;;;9.94;89.50
42003;BME280;27693;50.506;30.832;2022-11-04T01:10:12;99847.86;;;9.96;89.31
42003;BME280;27693;50.506;30.832;2022-11-04T01:11:14;99833.05;;;9.98;89.13
42003;BME280;27693;50.506;30.832;2022-11-04T01:12:17;99833.84;;;10.00;88.94
42003;BME280;27693;50.506;30.832;2022-11-04T01:13:19;99831.28;;;9.99;88.89
42003;BME280;27693;50.506;30.832;2022-11-04T01:14:22;99825.14;;;10.01;88.82
42003;BME280;27693;50.506;30.832;2022-11-04T01:15:24;99838.97;;;10.02;88.72
42003;BME280;27693;50.506;30.832;2022-11-04T01:16:27;99835.28;;;10.07;88.50
42003;BME280;27693;50.506;30.832;2022-11-04T01:17:29;99821.49;;;10.05;88.35
42003;BME280;27693;50.506;30.832;2022-11-04T01:18:31;99826.80;;;10.02;88.28
42003;BME280;27693;50.506;30.832;2022-11-04T01:19:33;99826.80;;;10.02;88.27
42003;BME280;27693;50.506;30.832;2022-11-04T01:20:35;99831.09;;;10.03;88.21
42003;BME280;27693;50.506;30.832;2022-11-04T01:21:37;99832.94;;;10.01;88.05
42003;BME280;27693;50.506;30.832;2022-11-04T01:22:39;99830.34;;;10.01;87.91
42003;BME280;27693;50.506;30.832;2022-11-04T01:23:43;99832.87;;;10.03;87.87
42003;BME280;27693;50.506;30.832;2022-11-04T01:24:45;99828.38;;;10.06;87.90
42003;BME280;27693;50.506;30.832;2022-11-04T01:25:47;99831.77;;;10.09;87.75
42003;BME280;27693;50.506;30.832;2022-11-04T01:26:49;99832.61;;;10.09;87.59
42003;BME280;27693;50.506;30.832;2022-11-04T01:27:50;99826.69;;;10.05;87.39
42003;BME280;27693;50.506;30.832;2022-11-04T01:28:54;99823.11;;;10.08;86.96
42003;BME280;27693;50.506;30.832;2022-11-04T01:29:56;99827.48;;;10.07;86.74
42003;BME280;27693;50.506;30.832;2022-11-04T01:30:58;99826.69;;;10.05;86.55
42003;BME280;27693;50.506;30.832;2022-11-04T01:32:00;99830.20;;;10.04;86.57
42003;BME280;27693;50.506;30.832;2022-11-04T01:33:03;99835.39;;;10.04;86.67
42003;BME280;27693;50.506;30.832;2022-11-04T01:34:06;99818.82;;;10.07;86.95
42003;BME280;27693;50.506;30.832;2022-11-04T01:35:08;99828.23;;;10.10;87.08
42003;BME280;27693;50.506;30.832;2022-11-04T01:36:13;99824.73;;;10.11;87.06
42003;BME280;27693;50.506;30.832;2022-11-04T01:37:14;99823.72;;;10.15;87.07
42003;BME280;27693;50.506;30.832;2022-11-04T01:38:18;99830.72;;;10.13;87.01
42003;BME280;27693;50.506;30.832;2022-11-04T01:39:20;99825.00;;;10.04;87.05
42003;BME280;27693;50.506;30.832;2022-11-04T01:40:22;99826.58;;;10.09;86.96
42003;BME280;27693;50.506;30.832;2022-11-04T01:41:26;99824.62;;;10.14;86.53
42003;BME280;27693;50.506;30.832;2022-11-04T01:42:29;99823.75;;;10.13;86.30
42003;BME280;27693;50.506;30.832;2022-11-04T01:44:59;99823.19;;;10.06;86.03
42003;BME280;27693;50.506;30.832;2022-11-04T01:46:03;99820.59;;;10.06;86.38
42003;BME280;27693;50.506;30.832;2022-11-04T01:47:07;99819.22;;;9.98;86.48
42003;BME280;27693;50.506;30.832;2022-11-04T01:48:16;99827.86;;;9.98;86.70
42003;BME280;27693;50.506;30.832;2022-11-04T01:50:32;99826.42;;;9.91;87.12
42003;BME280;27693;50.506;30.832;2022-11-04T01:51:37;99819.27;;;9.96;87.23
42003;BME280;27693;50.506;30.832;2022-11-04T01:52:59;99827.86;;;9.98;87.29
42003;BME280;27693;50.506;30.832;2022-11-04T01:54:03;99827.00;;;9.77;87.45
42003;BME280;27693;50.506;30.832;2022-11-04T01:55:10;99825.16;;;9.79;87.63
42003;BME280;27693;50.506;30.832;2022-11-04T01:56:13;99824.08;;;9.85;88.04
42003;BME280;27693;50.506;30.832;2022-11-04T01:57:20;99829.64;;;9.75;88.22
42003;BME280;27693;50.506;30.832;2022-11-04T01:58:33;99826.39;;;9.70;88.39
42003;BME280;27693;50.506;30.832;2022-11-04T01:59:35;99828.73;;;9.77;88.66
42003;BME280;27693;50.506;30.832;2022-11-04T02:00:39;99826.48;;;9.89;88.86
42003;BME280;27693;50.506;30.832;2022-11-04T02:01:43;99832.27;;;9.96;88.56
42003;BME280;27693;50.506;30.832;2022-11-04T02:02:58;99835.09;;;9.69;88.64
42003;BME280;27693;50.506;30.832;2022-11-04T02:04:00;99824.83;;;9.66;88.97
42003;BME280;27693;50.506;30.832;2022-11-04T02:05:02;99818.69;;;9.47;89.74
42003;BME280;27693;50.506;30.832;2022-11-04T02:06:05;99822.61;;;9.35;90.53
42003;BME280;27693;50.506;30.832;2022-11-04T02:07:09;99823.04;;;9.00;91.96
42003;BME280;27693;50.506;30.832;2022-11-04T02:08:14;99833.65;;;8.94;92.91
42003;BME280;27693;50.506;30.832;2022-11-04T02:09:17;99828.13;;;8.79;94.16
42003;BME280;27693;50.506;30.832;2022-11-04T02:10:24;99824.53;;;8.84;94.50
42003;BME280;27693;50.506;30.832;2022-11-04T02:11:26;99826.56;;;8.75;95.07
42003;BME280;27693;50.506;30.832;2022-11-04T02:12:27;99831.39;;;8.61;95.64
42003;BME280;27693;50.506;30.832;2022-11-04T02:13:32;99821.18;;;8.56;96.18
42003;BME280;27693;50.506;30.832;2022-11-04T02:14:35;99822.14;;;8.54;96.69
42003;BME280;27693;50.506;30.832;2022-11-04T02:15:54;99823.94;;;8.52;97.05
42003;BME280;27693;50.506;30.832;2022-11-04T02:18:42;99825.37;;;8.60;97.42
42003;BME280;27693;50.506;30.832;2022-11-04T02:21:21;99825.41;;;8.59;97.43
42003;BME280;27693;50.506;30.832;2022-11-04T02:24:21;99820.34;;;8.56;97.90
42003;BME280;27693;50.506;30.832;2022-11-04T02:30:24;99818.95;;;8.94;97.23
42003;BME280;27693;50.506;30.832;2022-11-04T02:32:59;99823.34;;;8.92;97.00
42003;BME280;27693;50.506;30.832;2022-11-04T02:35:22;99819.34;;;8.84;97.96
42003;BME280;27693;50.506;30.832;2022-11-04T02:38:00;99815.39;;;8.97;97.88
42003;BME280;27693;50.506;30.832;2022-11-04T02:39:22;99817.41;;;9.13;97.99
42003;BME280;27693;50.506;30.832;2022-11-04T02:40:40;99816.63;;;9.33;97.85
42003;BME280;27693;50.506;30.832;2022-11-04T02:41:55;99821.56;;;9.39;96.92
42003;BME280;27693;50.506;30.832;2022-11-04T02:43:00;99818.66;;;9.24;95.94
42003;BME280;27693;50.506;30.832;2022-11-04T02:45:37;99817.65;;;8.83;96.94
42003;BME280;27693;50.506;30.832;2022-11-04T02:47:06;99817.87;;;8.76;98.22
42003;BME280;27693;50.506;30.832;2022-11-04T02:48:37;99816.63;;;8.63;98.86
42003;BME280;27693;50.506;30.832;2022-11-04T02:49:49;99816.16;;;8.52;99.66
42003;BME280;27693;50.506;30.832;2022-11-04T02:50:58;99823.38;;;8.42;100.00
42003;BME280;27693;50.506;30.832;2022-11-04T02:52:10;99814.62;;;8.46;100.00
42003;BME280;27693;50.506;30.832;2022-11-04T02:53:31;99812.89;;;8.46;100.00
42003;BME280;27693;50.506;30.832;2022-11-04T02:54:42;99803.37;;;8.45;100.00
42003;BME280;27693;50.506;30.832;2022-11-04T02:55:49;99813.56;;;8.52;100.00
42003;BME280;27693;50.506;30.832;2022-11-04T02:56:55;99813.24;;;8.61;100.00
42003;BME280;27693;50.506;30.832;2022-11-04T02:58:01;99813.38;;;8.58;100.00
42003;BME280;27693;50.506;30.832;2022-11-04T02:59:12;99808.28;;;8.55;100.00
42003;BME280;27693;50.506;30.832;2022-11-04T03:00:14;99809.84;;;8.59;100.00
42003;BME280;27693;50.506;30.832;2022-11-04T03:01:17;99804.12;;;8.51;100.00
42003;BME280;27693;50.506;30.832;2022-11-04T03:02:32;99806.03;;;8.44;100.00
42003;BME280;27693;50.506;30.832;2022-11-04T03:03:33;99803.37;;;8.45;100.00
42003;BME280;27693;50.506;30.832;2022-11-04T03:04:38;99808.28;;;8.55;100.00
42003;BME280;27693;50.506;30.832;2022-11-04T03:05:43;99797.68;;;8.61;100.00
42003;BME280;27693;50.506;30.832;2022-11-04T03:06:48;99801.30;;;8.57;100.00
42003;BME280;27693;50.506;30.832;2022-11-04T03:07:54;99802.13;;;8.57;100.00
42003;BME280;27693;50.506;30.832;2022-11-04T03:08:58;99804.05;;;8.52;100.00
42003;BME280;27693;50.506;30.832;2022-11-04T03:10:04;99804.88;;;8.53;100.00
42003;BME280;27693;50.506;30.832;2022-11-04T03:11:14;99801.40;;;8.54;100.00
42003;BME280;27693;50.506;30.832;2022-11-04T03:12:19;99802.87;;;8.61;100.00
42003;BME280;27693;50.506;30.832;2022-11-04T03:13:41;99794.86;;;8.67;100.00
42003;BME280;27693;50.506;30.832;2022-11-04T03:14:43;99802.31;;;8.76;100.00
42003;BME280;27693;50.506;30.832;2022-11-04T03:15:48;99801.81;;;8.67;100.00
42003;BME280;27693;50.506;30.832;2022-11-04T03:16:55;99803.44;;;8.69;100.00
42003;BME280;27693;50.506;30.832;2022-11-04T03:19:25;99807.83;;;8.67;100.00
42003;BME280;27693;50.506;30.832;2022-11-04T03:20:29;99809.52;;;8.68;100.00
42003;BME280;27693;50.506;30.832;2022-11-04T03:21:33;99804.01;;;8.77;100.00
42003;BME280;27693;50.506;30.832;2022-11-04T03:22:37;99806.77;;;8.73;100.00
42003;BME280;27693;50.506;30.832;2022-11-04T03:23:40;99806.77;;;8.73;100.00
42003;BME280;27693;50.506;30.832;2022-11-04T03:24:43;99804.40;;;8.67;100.00
42003;BME280;27693;50.506;30.832;2022-11-04T03:25:49;99813.88;;;8.68;100.00
42003;BME280;27693;50.506;30.832;2022-11-04T03:29:38;99809.42;;;8.46;100.00
42003;BME280;27693;50.506;30.832;2022-11-04T03:30:42;99805.20;;;8.43;100.00
42003;BME280;27693;50.506;30.832;2022-11-04T03:32:02;99806.74;;;8.49;100.00
42003;BME280;27693;50.506;30.832;2022-11-04T03:33:32;99808.28;;;8.55;100.00
42003;BME280;27693;50.506;30.832;2022-11-04T03:34:32;99810.48;;;8.66;100.00
42003;BME280;27693;50.506;30.832;2022-11-04T03:35:34;99809.98;;;8.56;100.00
42003;BME280;27693;50.506;30.832;2022-11-04T03:36:36;99806.42;;;8.58;100.00
42003;BME280;27693;50.506;30.832;2022-11-04T03:37:38;99807.22;;;8.60;100.00
42003;BME280;27693;50.506;30.832;2022-11-04T03:38:40;99803.00;;;8.58;100.00
42003;BME280;27693;50.506;30.832;2022-11-04T03:39:42;99809.40;;;8.47;100.00
42003;BME280;27693;50.506;30.832;2022-11-04T03:40:44;99812.18;;;8.41;100.00
42003;BME280;27693;50.506;30.832;2022-11-04T03:41:50;99809.13;;;8.30;100.00
42003;BME280;27693;50.506;30.832;2022-11-04T03:42:56;99814.19;;;8.33;100.00
42003;BME280;27693;50.506;30.832;2022-11-04T03:43:58;99816.20;;;8.25;100.00
42003;BME280;27693;50.506;30.832;2022-11-04T03:45:00;99817.80;;;8.29;100.00
42003;BME280;27693;50.506;30.832;2022-11-04T03:46:04;99818.42;;;8.36;100.00
42003;BME280;27693;50.506;30.832;2022-11-04T03:47:06;99819.44;;;8.31;100.00
42003;BME280;27693;50.506;30.832;2022-11-04T03:48:09;99815.80;;;8.37;100.00
42003;BME280;27693;50.506;30.832;2022-11-04T03:49:13;99818.57;;;8.31;100.00
42003;BME280;27693;50.506;30.832;2022-11-04T03:51:30;99812.18;;;8.41;100.00
42003;BME280;27693;50.506;30.832;2022-11-04T03:52:32;99815.58;;;8.43;100.00
42003;BME280;27693;50.506;30.832;2022-11-04T03:53:35;99813.88;;;8.42;100.00
42003;BME280;27693;50.506;30.832;2022-11-04T03:54:37;99814.83;;;8.40;100.00
42003;BME280;27693;50.506;30.832;2022-11-04T03:55:49;99816.56;;;8.39;100.00
42003;BME280;27693;50.506;30.832;2022-11-04T03:57:10;99824.69;;;8.30;100.00
42003;BME280;27693;50.506;30.832;2022-11-04T04:02:35;99827.06;;;8.36;100.00
42003;BME280;27693;50.506;30.832;2022-11-04T04:03:48;99820.33;;;8.30;100.00
42003;BME280;27693;50.506;30.832;2022-11-04T04:04:59;99810.05;;;8.27;100.00
42003;BME280;27693;50.506;30.832;2022-11-04T04:09:56;99803.66;;;8.38;100.00
42003;BME280;27693;50.506;30.832;2022-11-04T04:11:17;99804.27;;;8.44;100.00
42003;BME280;27693;50.506;30.832;2022-11-04T04:13:35;99809.80;;;8.35;100.00
42003;BME280;27693;50.506;30.832;2022-11-04T04:14:51;99817.89;;;8.26;100.00
42003;BME280;27693;50.506;30.832;2022-11-04T04:15:57;99812.62;;;8.29;100.00
42003;BME280;27693;50.506;30.832;2022-11-04T04:17:02;99818.02;;;8.23;100.00
42003;BME280;27693;50.506;30.832;2022-11-04T04:18:08;99810.24;;;8.23;100.00
42003;BME280;27693;50.506;30.832;2022-11-04T04:19:18;99814.50;;;8.24;100.00
42003;BME280;27693;50.506;30.832;2022-11-04T04:20:23;99819.59;;;8.27;100.00
42003;BME280;27693;50.506;30.832;2022-11-04T04:21:39;99815.30;;;8.26;100.00
42003;BME280;27693;50.506;30.832;2022-11-04T04:22:52;99811.88;;;8.25;100.00
42003;BME280;27693;50.506;30.832;2022-11-04T04:23:54;99817.80;;;8.29;100.00
42003;BME280;27693;50.506;30.832;2022-11-04T04:25:00;99817.21;;;8.21;100.00
42003;BME280;27693;50.506;30.832;2022-11-04T04:26:05;99811.02;;;8.25;100.00
42003;BME280;27693;50.506;30.832;2022-11-04T04:27:09;99811.88;;;8.25;100.00
42003;BME280;27693;50.506;30.832;2022-11-04T04:28:16;99808.55;;;8.22;100.00
42003;BME280;27693;50.506;30.832;2022-11-04T04:29:22;99817.42;;;8.14;100.00
42003;BME280;27693;50.506;30.832;2022-11-04T04:30:24;99814.30;;;8.05;100.00
42003;BME280;27693;50.506;30.832;2022-11-04T04:31:28;99808.17;;;8.07;100.00
42003;BME280;27693;50.506;30.832;2022-11-04T04:32:43;99821.81;;;8.12;100.00
42003;BME280;27693;50.506;30.832;2022-11-04T04:33:46;99814.03;;;8.12;100.00
42003;BME280;27693;50.506;30.832;2022-11-04T04:34:47;99812.98;;;8.18;100.00
42003;BME280;27693;50.506;30.832;2022-11-04T04:35:54;99824.78;;;8.27;100.00
42003;BME280;27693;50.506;30.832;2022-11-04T04:37:10;99824.78;;;8.27;100.00
42003;BME280;27693;50.506;30.832;2022-11-04T04:38:26;99819.90;;;8.18;100.00
42003;BME280;27693;50.506;30.832;2022-11-04T04:39:42;99815.23;;;8.27;100.00
42003;BME280;27693;50.506;30.832;2022-11-04T04:40:52;99819.50;;;8.30;100.00
42003;BME280;27693;50.506;30.832;2022-11-04T04:41:52;99817.80;;;8.29;100.00
42003;BME280;27693;50.506;30.832;2022-11-04T04:42:55;99821.29;;;8.28;100.00
42003;BME280;27693;50.506;30.832;2022-11-04T04:43:57;99828.05;;;8.32;100.00
42003;BME280;27693;50.506;30.832;2022-11-04T04:45:02;99822.77;;;8.35;100.00
42003;BME280;27693;50.506;30.832;2022-11-04T06:52:31;99890.22;;;8.07;100.00
42003;BME280;27693;50.506;30.832;2022-11-04T06:53:33;99886.11;;;8.01;100.00
42003;BME280;27693;50.506;30.832;2022-11-04T06:54:35;99892.06;;;8.03;100.00
42003;BME280;27693;50.506;30.832;2022-11-04T06:55:37;99889.30;;;8.09;100.00
42003;BME280;27693;50.506;30.832;2022-11-04T06:56:39;99897.97;;;8.08;100.00
42003;BME280;27693;50.506;30.832;2022-11-04T06:57:41;99891.17;;;8.04;100.00
42003;BME280;27693;50.506;30.832;2022-11-04T06:58:48;99889.24;;;8.11;100.00
42003;BME280;27693;50.506;30.832;2022-11-04T06:59:50;99891.72;;;8.14;100.00
42003;BME280;27693;50.506;30.832;2022-11-04T07:00:52;99886.86;;;8.05;100.00
42003;BME280;27693;50.506;30.832;2022-11-04T07:01:54;99883.60;;;7.98;100.00
42003;BME280;27693;50.506;30.832;2022-11-04T07:02:57;99883.60;;;7.98;100.00
42003;BME280;27693;50.506;30.832;2022-11-04T07:04:02;99888.34;;;8.12;100.00
42003;BME280;27693;50.506;30.832;2022-11-04T07:05:04;99889.88;;;8.18;100.00
42003;BME280;27693;50.506;30.832;2022-11-04T07:06:08;99888.98;;;8.19;100.00
42003;BME280;27693;50.506;30.832;2022-11-04T07:07:11;99889.19;;;8.12;100.00
42003;BME280;27693;50.506;30.832;2022-11-04T07:08:13;99892.52;;;8.16;100.00
42003;BME280;27693;50.506;30.832;2022-11-04T07:09:15;99889.03;;;8.17;100.00
42003;BME280;27693;50.506;30.832;2022-11-04T07:10:18;99889.52;;;8.28;100.00
42003;BME280;27693;50.506;30.832;2022-11-04T07:11:21;99883.14;;;8.39;100.00
42003;BME280;27693;50.506;30.832;2022-11-04T07:12:24;99883.75;;;8.45;100.00
42003;BME280;27693;50.506;30.832;2022-11-04T07:13:27;99883.70;;;8.49;100.00
42003;BME280;27693;50.506;30.832;2022-11-04T07:14:29;99877.40;;;8.56;100.00
42003;BME280;27693;50.506;30.832;2022-11-04T07:15:31;99878.30;;;8.55;100.00
42003;BME280;27693;50.506;30.832;2022-11-04T07:16:33;99877.40;;;8.56;100.00
42003;BME280;27693;50.506;30.832;2022-11-04T07:17:35;99884.06;;;8.63;100.00
42003;BME280;27693;50.506;30.832;2022-11-04T07:18:37;99879.99;;;8.56;100.00
42003;BME280;27693;50.506;30.832;2022-11-04T07:19:39;99878.38;;;8.52;100.00
42003;BME280;27693;50.506;30.832;2022-11-04T07:20:41;99877.48;;;8.53;100.00
42003;BME280;27693;50.506;30.832;2022-11-04T07:21:44;99874.06;;;8.52;100.00
42003;BME280;27693;50.506;30.832;2022-11-04T07:22:46;99881.10;;;8.49;100.00
42003;BME280;27693;50.506;30.832;2022-11-04T07:23:48;99878.38;;;8.52;100.00
42003;BME280;27693;50.506;30.832;2022-11-04T07:24:50;99871.87;;;8.65;100.00
42003;BME280;27693;50.506;30.832;2022-11-04T07:25:51;99878.14;;;8.59;100.00
42003;BME280;27693;50.506;30.832;2022-11-04T07:26:54;99877.18;;;8.62;100.00
42003;BME280;27693;50.506;30.832;2022-11-04T07:27:56;99877.18;;;8.62;100.00
42003;BME280;27693;50.506;30.832;2022-11-04T07:29:00;99877.86;;;8.67;100.00
42003;BME280;27693;50.506;30.832;2022-11-04T07:30:02;99873.69;;;8.63;100.00
42003;BME280;27693;50.506;30.832;2022-11-04T07:31:07;99874.68;;;8.59;100.00
42003;BME280;27693;50.506;30.832;2022-11-04T07:32:09;99876.00;;;8.71;100.00
42003;BME280;27693;50.506;30.832;2022-11-04T07:33:11;99874.52;;;8.63;100.00
42003;BME280;27693;50.506;30.832;2022-11-04T07:34:13;99883.39;;;8.58;100.00
42003;BME280;27693;50.506;30.832;2022-11-04T07:35:16;99879.31;;;8.51;100.00
42003;BME280;27693;50.506;30.832;2022-11-04T07:36:18;99876.09;;;8.42;100.00
42003;BME280;27693;50.506;30.832;2022-11-04T07:37:21;99874.22;;;8.47;100.00
42003;BME280;27693;50.506;30.832;2022-11-04T07:38:22;99874.87;;;8.54;100.00
42003;BME280;27693;50.506;30.832;2022-11-04T07:39:25;99881.63;;;8.58;100.00
42003;BME280;27693;50.506;30.832;2022-11-04T07:40:27;99874.52;;;8.63;100.00
42003;BME280;27693;50.506;30.832;2022-11-04T07:41:28;99876.22;;;8.65;100.00
42003;BME280;27693;50.506;30.832;2022-11-04T07:42:30;99877.05;;;8.65;100.00
42003;BME280;27693;50.506;30.832;2022-11-04T07:43:35;99874.08;;;8.76;100.00
42003;BME280;27693;50.506;30.832;2022-11-04T07:44:37;99865.69;;;8.69;100.00
42003;BME280;27693;50.506;30.832;2022-11-04T07:45:39;99869.85;;;8.73;99.91
42003;BME280;27693;50.506;30.832;2022-11-04T07:46:42;99873.98;;;8.79;99.81
42003;BME280;27693;50.506;30.832;2022-11-04T07:47:44;99878.66;;;8.69;99.60
42003;BME280;27693;50.506;30.832;2022-11-04T07:48:46;99876.86;;;8.71;99.69
42003;BME280;27693;50.506;30.832;2022-11-04T07:49:48;99870.81;;;8.71;99.71
42003;BME280;27693;50.506;30.832;2022-11-04T07:50:56;99878.75;;;8.66;100.00
42003;BME280;27693;50.506;30.832;2022-11-04T07:51:59;99870.61;;;8.52;100.00
42003;BME280;27693;50.506;30.832;2022-11-04T07:53:00;99866.72;;;8.38;100.00
42003;BME280;27693;50.506;30.832;2022-11-04T07:54:02;99877.80;;;8.43;100.00
42003;BME280;27693;50.506;30.832;2022-11-04T07:55:06;99875.02;;;8.50;100.00
42003;BME280;27693;50.506;30.832;2022-11-04T07:56:10;99879.65;;;8.65;100.00
42003;BME280;27693;50.506;30.832;2022-11-04T07:57:13;99870.81;;;8.71;100.00
42003;BME280;27693;50.506;30.832;2022-11-04T07:58:15;99883.84;;;8.69;100.00
42003;BME280;27693;50.506;30.832;2022-11-04T07:59:17;99887.33;;;8.68;100.00
42003;BME280;27693;50.506;30.832;2022-11-04T08:00:19;99887.65;;;8.59;100.00
42003;BME280;27693;50.506;30.832;2022-11-04T08:01:23;99887.86;;;8.53;100.00
42003;BME280;27693;50.506;30.832;2022-11-04T08:02:25;99882.03;;;8.46;100.00
42003;BME280;27693;50.506;30.832;2022-11-04T08:03:29;99876.81;;;8.47;100.00
42003;BME280;27693;50.506;30.832;2022-11-04T08:04:32;99882.80;;;8.50;100.00
42003;BME280;27693;50.506;30.832;2022-11-04T08:05:35;99882.67;;;8.53;100.00
42003;BME280;27693;50.506;30.832;2022-11-04T08:06:37;99881.41;;;8.65;100.00
42003;BME280;27693;50.506;30.832;2022-11-04T08:07:39;99885.64;;;8.67;100.00
42003;BME280;27693;50.506;30.832;2022-11-04T08:08:42;99880.45;;;8.67;100.00
42003;BME280;27693;50.506;30.832;2022-11-04T08:09:45;99876.86;;;8.71;100.00
42003;BME280;27693;50.506;30.832;2022-11-04T08:10:54;99876.64;;;8.77;100.00
42003;BME280;27693;50.506;30.832;2022-11-04T08:11:56;99879.11;;;8.81;100.00
42003;BME280;27693;50.506;30.832;2022-11-04T08:12:58;99875.91;;;8.74;99.71
42003;BME280;27693;50.506;30.832;2022-11-04T08:14:02;99877.60;;;8.75;99.77
42003;BME280;27693;50.506;30.832;2022-11-04T08:15:06;99879.39;;;8.73;99.62
42003;BME280;27693;50.506;30.832;2022-11-04T08:16:12;99878.44;;;8.75;99.89
42003;BME280;27693;50.506;30.832;2022-11-04T08:17:15;99876.64;;;8.77;99.79
42003;BME280;27693;50.506;30.832;2022-11-04T08:18:17;99876.52;;;8.81;99.82
42003;BME280;27693;50.506;30.832;2022-11-04T08:19:20;99876.64;;;8.77;99.62